Clinton, Michigan
Current Conditions -  °F | °C
As of 3:08 AM on Tuesday 21 Oct 2014 (Local Time) from KARB Reporting Station
Overcast Overcast  
Wind Chill: 45°   Ceiling: 2600
Heat Index: 49°   Visibility: 10mi
Dew Point: 42°   Wind: 9mph
Humidity: 77%   Direction: 340°NNW
Pressure: 29.89"   Gusts: NA
Location:  42.07°N, 83.97°W
Report Text: KARB 210708Z AUTO 34008KT 10SM BKN026 OVC055 09/06 A2989 RMK AO2 T00940056
Loading
Personal Weather Stations






























Interactive Weather Map
Tropical Storm Tracking
New forecast layout! Learn more

10-Day Weather Forecast

Advertisements
Track Severe Weather on mobile